createdAt,value
2016-11-25T00:00:06.134Z,929.66
2016-11-25T00:00:20.672Z,929.67
2016-11-25T00:00:35.179Z,929.65
2016-11-25T00:00:49.600Z,929.67
2016-11-25T00:01:04.061Z,929.67
2016-11-25T00:01:18.559Z,929.63
2016-11-25T00:01:33.022Z,929.62
2016-11-25T00:01:47.639Z,929.63
2016-11-25T00:02:02.082Z,929.69
2016-11-25T00:02:16.674Z,929.66
2016-11-25T00:02:31.299Z,929.66
2016-11-25T00:02:45.986Z,929.67
2016-11-25T00:03:00.401Z,929.68
2016-11-25T00:03:14.822Z,929.68
2016-11-25T00:03:29.340Z,929.7
2016-11-25T00:03:43.958Z,929.7
2016-11-25T00:03:58.546Z,929.73
2016-11-25T00:04:12.964Z,929.77
2016-11-25T00:04:27.551Z,929.78
2016-11-25T00:04:42.142Z,929.76
2016-11-25T00:04:56.694Z,929.77
2016-11-25T00:05:11.414Z,929.77
2016-11-25T00:05:26.133Z,929.81
2016-11-25T00:05:40.702Z,929.79
2016-11-25T00:05:55.243Z,929.76
2016-11-25T00:06:09.692Z,929.77
2016-11-25T00:06:24.386Z,929.79
2016-11-25T00:06:39.104Z,929.78
2016-11-25T00:06:53.629Z,929.8
2016-11-25T00:07:08.317Z,929.79
2016-11-25T00:07:23.128Z,929.83
2016-11-25T00:07:37.692Z,929.79
2016-11-25T00:07:52.379Z,929.76
2016-11-25T00:08:07.159Z,929.83
2016-11-25T00:08:21.779Z,929.82
2016-11-25T00:08:36.555Z,929.91
2016-11-25T00:08:51.326Z,929.84
2016-11-25T00:09:05.959Z,929.81
2016-11-25T00:09:20.671Z,929.79
2016-11-25T00:09:35.129Z,929.79
2016-11-25T00:09:49.584Z,929.77
2016-11-25T00:10:04.399Z,929.77
2016-11-25T00:10:19.046Z,929.75
2016-11-25T00:10:33.683Z,929.76
2016-11-25T00:10:48.296Z,929.76
2016-11-25T00:11:02.723Z,929.73
2016-11-25T00:11:17.258Z,929.8
2016-11-25T00:11:31.806Z,929.79
2016-11-25T00:11:46.513Z,929.71
2016-11-25T00:12:01.274Z,929.75
2016-11-25T00:12:15.937Z,929.74
2016-11-25T00:12:30.294Z,929.74
2016-11-25T00:12:44.756Z,929.73
2016-11-25T00:12:59.322Z,929.74
2016-11-25T00:13:13.921Z,929.73
2016-11-25T00:13:28.362Z,929.72
2016-11-25T00:13:42.875Z,929.72
2016-11-25T00:13:57.292Z,929.72
2016-11-25T00:14:11.999Z,929.75
2016-11-25T00:14:26.500Z,929.71
2016-11-25T00:14:41.051Z,929.76
2016-11-25T00:14:55.500Z,929.74
2016-11-25T00:15:10.110Z,929.7
2016-11-25T00:15:24.538Z,929.75
2016-11-25T00:15:39.345Z,929.76
2016-11-25T00:15:53.841Z,929.78
2016-11-25T00:16:08.338Z,929.73
2016-11-25T00:16:22.899Z,929.8
2016-11-25T00:16:37.431Z,929.79
2016-11-25T00:16:52.111Z,929.78
2016-11-25T00:17:06.654Z,929.73
2016-11-25T00:17:21.279Z,929.71
2016-11-25T00:17:35.737Z,929.72
2016-11-25T00:17:50.318Z,929.72
2016-11-25T00:18:04.718Z,929.71
2016-11-25T00:18:19.159Z,929.74
2016-11-25T00:18:33.753Z,929.76
2016-11-25T00:18:48.314Z,929.79
2016-11-25T00:19:02.815Z,929.81
2016-11-25T00:19:17.232Z,929.8
2016-11-25T00:19:31.766Z,929.74
2016-11-25T00:19:46.340Z,929.76
2016-11-25T00:20:00.889Z,929.82
2016-11-25T00:20:15.338Z,929.76
2016-11-25T00:20:30.091Z,929.71
2016-11-25T00:20:44.748Z,929.81
2016-11-25T00:20:59.383Z,929.9
2016-11-25T00:21:13.973Z,929.84
2016-11-25T00:21:28.444Z,929.81
2016-11-25T00:21:42.903Z,929.78
2016-11-25T00:21:57.468Z,929.77
2016-11-25T00:22:11.919Z,929.78
2016-11-25T00:22:26.230Z,929.8
2016-11-25T00:22:40.677Z,929.77
2016-11-25T00:22:55.304Z,929.82
2016-11-25T00:23:10.057Z,929.8
2016-11-25T00:23:24.638Z,929.83
2016-11-25T00:23:39.282Z,929.79
2016-11-25T00:23:53.872Z,929.79
2016-11-25T00:24:08.537Z,929.81
2016-11-25T00:24:23.167Z,929.82
2016-11-25T00:24:37.832Z,929.88
2016-11-25T00:24:52.367Z,929.85
2016-11-25T00:25:07.083Z,929.81
2016-11-25T00:25:21.692Z,929.83
2016-11-25T00:25:36.234Z,929.88
2016-11-25T00:25:50.766Z,929.83
2016-11-25T00:26:05.325Z,929.82
2016-11-25T00:26:19.743Z,929.8
2016-11-25T00:26:34.336Z,929.83
2016-11-25T00:26:49.107Z,929.86
2016-11-25T00:27:03.762Z,929.83
2016-11-25T00:27:18.420Z,929.85
2016-11-25T00:27:33.067Z,929.86
2016-11-25T00:27:47.763Z,929.89
2016-11-25T00:28:02.287Z,929.9
2016-11-25T00:28:16.917Z,929.87
2016-11-25T00:28:31.476Z,929.89
2016-11-25T00:28:45.944Z,929.91
2016-11-25T00:29:00.440Z,929.91
2016-11-25T00:29:15.007Z,929.91
2016-11-25T00:29:30.006Z,929.89
2016-11-25T00:29:44.600Z,929.98
2016-11-25T00:29:59.257Z,929.91
2016-11-25T00:30:13.697Z,929.96
2016-11-25T00:30:28.737Z,929.86
2016-11-25T00:30:43.300Z,929.96
2016-11-25T00:30:57.808Z,929.95
2016-11-25T00:31:12.333Z,929.95
2016-11-25T00:31:27.006Z,929.91
2016-11-25T00:31:41.632Z,929.95
2016-11-25T00:31:56.177Z,929.91
2016-11-25T00:32:10.713Z,929.9
2016-11-25T00:32:25.182Z,929.91
2016-11-25T00:32:39.735Z,929.96
2016-11-25T00:32:54.164Z,929.95
2016-11-25T00:33:08.664Z,929.9
2016-11-25T00:33:23.135Z,930
2016-11-25T00:33:37.698Z,929.95
2016-11-25T00:33:52.153Z,929.96
2016-11-25T00:34:06.760Z,929.92
2016-11-25T00:34:21.283Z,929.96
2016-11-25T00:34:35.626Z,929.94
2016-11-25T00:34:50.179Z,929.96
2016-11-25T00:35:04.582Z,929.97
2016-11-25T00:35:18.982Z,929.96
2016-11-25T00:35:33.455Z,929.97
2016-11-25T00:35:47.934Z,929.98
2016-11-25T00:36:02.323Z,929.94
2016-11-25T00:36:16.886Z,929.95
2016-11-25T00:36:31.345Z,929.96
2016-11-25T00:36:45.721Z,929.92
2016-11-25T00:37:00.119Z,929.99
2016-11-25T00:37:14.573Z,929.99
2016-11-25T00:37:29.012Z,929.95
2016-11-25T00:37:43.431Z,929.97
2016-11-25T00:37:57.783Z,929.95
2016-11-25T00:38:12.187Z,929.96
2016-11-25T00:38:26.537Z,929.93
2016-11-25T00:38:40.917Z,929.94
2016-11-25T00:38:55.281Z,929.98
2016-11-25T00:39:09.741Z,929.94
2016-11-25T00:39:24.220Z,929.94
2016-11-25T00:39:38.796Z,929.97
2016-11-25T00:39:53.160Z,929.96
2016-11-25T00:40:07.625Z,929.93
2016-11-25T00:40:21.997Z,929.96
2016-11-25T00:40:36.398Z,929.94
2016-11-25T00:40:50.946Z,929.91
2016-11-25T00:41:05.445Z,929.94
2016-11-25T00:41:19.909Z,929.96
2016-11-25T00:41:34.346Z,929.94
2016-11-25T00:41:48.760Z,930.01
2016-11-25T00:42:03.129Z,929.91
2016-11-25T00:42:17.540Z,929.93
2016-11-25T00:42:32.173Z,929.91
2016-11-25T00:42:46.615Z,929.93
2016-11-25T00:43:01.157Z,929.94
2016-11-25T00:43:15.756Z,929.95
2016-11-25T00:43:30.189Z,929.99
2016-11-25T00:43:44.676Z,930
2016-11-25T00:43:59.115Z,929.94
2016-11-25T00:44:13.539Z,929.96
2016-11-25T00:44:28.327Z,929.93
2016-11-25T00:44:42.806Z,929.95
2016-11-25T00:44:57.198Z,929.92
2016-11-25T00:45:11.581Z,929.93
2016-11-25T00:45:25.987Z,929.96
2016-11-25T00:45:40.546Z,929.93
2016-11-25T00:45:54.882Z,929.92
2016-11-25T00:46:09.376Z,929.95
2016-11-25T00:46:23.817Z,929.94
2016-11-25T00:46:38.233Z,929.96
2016-11-25T00:46:52.729Z,929.93
2016-11-25T00:47:07.188Z,929.95
2016-11-25T00:47:21.664Z,929.95
2016-11-25T00:47:36.079Z,930
2016-11-25T00:47:50.569Z,929.96
2016-11-25T00:48:04.958Z,929.97
2016-11-25T00:48:19.422Z,930
2016-11-25T00:48:33.864Z,929.97
2016-11-25T00:48:48.272Z,929.98
2016-11-25T00:49:02.695Z,929.97
2016-11-25T00:49:17.113Z,930
2016-11-25T00:49:31.623Z,929.98
2016-11-25T00:49:46.005Z,929.99
2016-11-25T00:50:00.443Z,929.99
2016-11-25T00:50:14.896Z,930.04
2016-11-25T00:50:29.397Z,929.99
2016-11-25T00:50:43.831Z,930.07
2016-11-25T00:50:58.241Z,930.03
2016-11-25T00:51:12.658Z,930.01
2016-11-25T00:51:27.178Z,929.99
2016-11-25T00:51:41.599Z,929.98
2016-11-25T00:51:55.990Z,930.02
2016-11-25T00:52:10.355Z,930.05
2016-11-25T00:52:24.844Z,930.01
2016-11-25T00:52:39.283Z,930
2016-11-25T00:52:53.774Z,930.01
2016-11-25T00:53:08.227Z,930.02
2016-11-25T00:53:22.767Z,930.01
2016-11-25T00:53:37.298Z,930.01
2016-11-25T00:53:51.675Z,930.03
2016-11-25T00:54:06.133Z,930.01
2016-11-25T00:54:20.531Z,930.06
2016-11-25T00:54:34.998Z,930.05
2016-11-25T00:54:49.429Z,930.07
2016-11-25T00:55:03.784Z,930.05
2016-11-25T00:55:18.247Z,930.07
2016-11-25T00:55:32.703Z,930.01
2016-11-25T00:55:47.196Z,930.02
2016-11-25T00:56:01.619Z,930
2016-11-25T00:56:16.008Z,929.99
2016-11-25T00:56:30.385Z,930.03
2016-11-25T00:56:44.667Z,930.06
2016-11-25T00:56:59.037Z,930.02
2016-11-25T00:57:13.438Z,930.06
2016-11-25T00:57:27.824Z,930.02
2016-11-25T00:57:42.181Z,930.04
2016-11-25T00:57:56.584Z,930.08
2016-11-25T00:58:10.948Z,930.03
2016-11-25T00:58:25.387Z,930.04
2016-11-25T00:58:39.750Z,930.07
2016-11-25T00:58:54.136Z,930.06
2016-11-25T00:59:08.556Z,930.03
2016-11-25T00:59:22.942Z,930.04
2016-11-25T00:59:37.569Z,930.03
2016-11-25T00:59:52.123Z,930.05
2016-11-25T01:00:06.526Z,930.03
2016-11-25T01:00:20.969Z,930.04
2016-11-25T01:00:35.438Z,930.05
2016-11-25T01:00:49.798Z,930.04
2016-11-25T01:01:04.104Z,930.01
2016-11-25T01:01:18.508Z,929.99
2016-11-25T01:01:32.845Z,930.05
2016-11-25T01:01:47.281Z,930.07
2016-11-25T01:02:01.677Z,930.08
2016-11-25T01:02:16.086Z,930.03
2016-11-25T01:02:30.434Z,930.05
2016-11-25T01:02:44.826Z,930.02
2016-11-25T01:02:59.179Z,930.01
2016-11-25T01:03:13.533Z,930.05
2016-11-25T01:03:27.920Z,930.11
2016-11-25T01:03:42.330Z,930.11
2016-11-25T01:03:56.651Z,930.08
2016-11-25T01:04:11.014Z,930.08
2016-11-25T01:04:25.379Z,930.02
2016-11-25T01:04:39.743Z,930.08
2016-11-25T01:04:54.102Z,930.04
2016-11-25T01:05:08.440Z,930.05
2016-11-25T01:05:22.787Z,930.05
2016-11-25T01:05:37.128Z,930.03
2016-11-25T01:05:51.545Z,930.08
2016-11-25T01:06:05.899Z,930.03
2016-11-25T01:06:20.329Z,930.03
2016-11-25T01:06:34.703Z,930.11
2016-11-25T01:06:49.136Z,930.12
2016-11-25T01:07:03.515Z,930.04
2016-11-25T01:07:17.852Z,930.01
2016-11-25T01:07:32.238Z,930.06
2016-11-25T01:07:46.631Z,930.02
2016-11-25T01:08:00.990Z,930.02
2016-11-25T01:08:15.355Z,930.03
2016-11-25T01:08:29.760Z,930.07
2016-11-25T01:08:44.152Z,930.07
2016-11-25T01:08:58.530Z,930.07
2016-11-25T01:09:12.927Z,930.08
2016-11-25T01:09:27.318Z,930.08
2016-11-25T01:09:41.734Z,930.1
2016-11-25T01:09:56.165Z,930.06
2016-11-25T01:10:10.543Z,930.06
2016-11-25T01:10:24.896Z,930.11
2016-11-25T01:10:39.300Z,930.11
2016-11-25T01:10:53.586Z,930.15
2016-11-25T01:11:07.987Z,930.12
2016-11-25T01:11:22.410Z,930.03
2016-11-25T01:11:36.783Z,930.06
2016-11-25T01:11:51.171Z,930.05
2016-11-25T01:12:05.574Z,930.04
2016-11-25T01:12:19.929Z,930.05
2016-11-25T01:12:34.373Z,930.07
2016-11-25T01:12:48.790Z,930.08
2016-11-25T01:13:03.176Z,930.08
2016-11-25T01:13:17.547Z,930.06
2016-11-25T01:13:31.898Z,930.07
2016-11-25T01:13:46.298Z,930.05
2016-11-25T01:14:00.769Z,930.04
2016-11-25T01:14:15.180Z,930.08
2016-11-25T01:14:29.519Z,930.04
2016-11-25T01:14:44.155Z,930.07
2016-11-25T01:14:58.615Z,930.05
2016-11-25T01:15:12.936Z,930.06
2016-11-25T01:15:27.275Z,930.04
2016-11-25T01:15:41.589Z,930.08
2016-11-25T01:15:55.910Z,930.08
2016-11-25T01:16:10.225Z,930.08
2016-11-25T01:16:24.562Z,930.18
2016-11-25T01:16:38.938Z,930.08
2016-11-25T01:16:53.368Z,930.01
2016-11-25T01:17:07.734Z,930.07
2016-11-25T01:17:22.044Z,930.06
2016-11-25T01:17:36.388Z,930.13
2016-11-25T01:17:50.780Z,930.07
2016-11-25T01:18:05.148Z,930.08
2016-11-25T01:18:19.468Z,930.06
2016-11-25T01:18:33.854Z,930.08
2016-11-25T01:18:48.264Z,930.08
2016-11-25T01:19:02.668Z,930.11
2016-11-25T01:19:17.039Z,930.1
2016-11-25T01:19:31.403Z,930.13
2016-11-25T01:19:45.675Z,930.17
2016-11-25T01:20:00.076Z,930.05
2016-11-25T01:20:14.466Z,930.13
2016-11-25T01:20:28.844Z,930.1
2016-11-25T01:20:43.218Z,930.06
2016-11-25T01:20:57.582Z,930.11
2016-11-25T01:21:11.937Z,930.09
2016-11-25T01:21:26.340Z,930.06
2016-11-25T01:21:40.787Z,930.09
2016-11-25T01:21:55.145Z,930.1
2016-11-25T01:22:09.573Z,930.12
2016-11-25T01:22:23.932Z,930.09
2016-11-25T01:22:38.334Z,930.09
2016-11-25T01:22:52.765Z,930.11
2016-11-25T01:23:07.128Z,930.1
2016-11-25T01:23:21.462Z,930.14
2016-11-25T01:23:35.821Z,930.12
2016-11-25T01:23:50.166Z,930.12
2016-11-25T01:24:04.517Z,930.11
2016-11-25T01:24:18.873Z,930.1
2016-11-25T01:24:33.257Z,930.14
2016-11-25T01:24:47.617Z,930.14
2016-11-25T01:25:01.957Z,930.11
2016-11-25T01:25:16.330Z,930.15
2016-11-25T01:25:30.780Z,930.1
2016-11-25T01:25:45.167Z,930.11
2016-11-25T01:25:59.540Z,930.11
2016-11-25T01:26:13.882Z,930.14
2016-11-25T01:26:28.190Z,930.13
2016-11-25T01:26:42.609Z,930.08
2016-11-25T01:26:57.076Z,930.09
2016-11-25T01:27:11.453Z,930.1
2016-11-25T01:27:25.835Z,930.08
2016-11-25T01:27:40.170Z,930.08
2016-11-25T01:27:54.515Z,930.08
2016-11-25T01:28:08.851Z,930.14
2016-11-25T01:28:23.182Z,930.08
2016-11-25T01:28:37.577Z,930.12
2016-11-25T01:28:51.954Z,930.14
2016-11-25T01:29:06.322Z,930.1
2016-11-25T01:29:20.790Z,930.07
2016-11-25T01:29:35.140Z,930.08
2016-11-25T01:29:49.726Z,930.06
2016-11-25T01:30:04.042Z,930.1
2016-11-25T01:30:18.514Z,930.07
2016-11-25T01:30:32.824Z,930.12
2016-11-25T01:30:47.169Z,930.11
2016-11-25T01:31:01.619Z,930.06
2016-11-25T01:31:15.993Z,930.13
2016-11-25T01:31:30.325Z,930.08
2016-11-25T01:31:44.664Z,930.12
2016-11-25T01:31:59.021Z,930.05
2016-11-25T01:32:13.443Z,930.06
2016-11-25T01:32:27.807Z,930.08
2016-11-25T01:32:42.172Z,930.08
2016-11-25T01:32:56.564Z,930.07
2016-11-25T01:33:10.879Z,930.07
2016-11-25T01:33:25.172Z,930.06
2016-11-25T01:33:39.581Z,930.07
2016-11-25T01:33:53.963Z,930.08
2016-11-25T01:34:08.311Z,930.06
2016-11-25T01:34:22.719Z,930.07
2016-11-25T01:34:37.100Z,930.03
2016-11-25T01:34:51.460Z,930.05
2016-11-25T01:35:05.962Z,930.05
2016-11-25T01:35:20.409Z,930.04
2016-11-25T01:35:34.876Z,930.03
2016-11-25T01:35:49.229Z,930.08
2016-11-25T01:36:03.676Z,930.04
2016-11-25T01:36:18.105Z,930.11
2016-11-25T01:36:32.516Z,930.06
2016-11-25T01:36:46.866Z,930.05
2016-11-25T01:37:01.265Z,930.07
2016-11-25T01:37:15.532Z,930.08
2016-11-25T01:37:29.864Z,930.08
2016-11-25T01:37:44.219Z,930.06
2016-11-25T01:37:58.561Z,930.07
2016-11-25T01:38:13.052Z,930.07
2016-11-25T01:38:27.457Z,930.08
2016-11-25T01:38:41.800Z,930.08
2016-11-25T01:38:56.198Z,930.08
2016-11-25T01:39:10.599Z,930.02
2016-11-25T01:39:25.039Z,930.08
2016-11-25T01:39:39.436Z,930.07
2016-11-25T01:39:53.781Z,930.05
2016-11-25T01:40:08.196Z,930.04
2016-11-25T01:40:22.631Z,930.07
2016-11-25T01:40:37.084Z,930.05
2016-11-25T01:40:51.439Z,930.05
2016-11-25T01:41:05.796Z,930.07
2016-11-25T01:41:20.199Z,930.02
2016-11-25T01:41:34.550Z,930.06
2016-11-25T01:41:48.960Z,930.03
2016-11-25T01:42:03.329Z,930.04
2016-11-25T01:42:17.652Z,930.06
2016-11-25T01:42:32.000Z,930.05
2016-11-25T01:42:46.368Z,930.03
2016-11-25T01:43:00.762Z,930.03
2016-11-25T01:43:15.194Z,930.01
2016-11-25T01:43:29.517Z,930.01
2016-11-25T01:43:43.861Z,930.04
2016-11-25T01:43:58.200Z,930.02
2016-11-25T01:44:12.560Z,930.01
2016-11-25T01:44:26.937Z,929.99
2016-11-25T01:44:41.235Z,929.99
2016-11-25T01:44:55.799Z,930.07
2016-11-25T01:45:10.179Z,930.03
2016-11-25T01:45:24.617Z,930.09
2016-11-25T01:45:39.052Z,930.04
2016-11-25T01:45:53.445Z,930.05
2016-11-25T01:46:07.789Z,930.04
2016-11-25T01:46:22.124Z,930
2016-11-25T01:46:36.431Z,930.03
2016-11-25T01:46:50.683Z,930
2016-11-25T01:47:05.053Z,930.04
2016-11-25T01:47:19.369Z,930.03
2016-11-25T01:47:33.741Z,930.05
2016-11-25T01:47:48.075Z,929.95
2016-11-25T01:48:02.446Z,930
2016-11-25T01:48:16.845Z,930.01
2016-11-25T01:48:31.237Z,929.98
2016-11-25T01:48:45.662Z,929.98
2016-11-25T01:48:59.988Z,929.97
2016-11-25T01:49:14.391Z,929.99
2016-11-25T01:49:28.798Z,930.02
2016-11-25T01:49:43.116Z,929.99
2016-11-25T01:49:57.505Z,929.98
2016-11-25T01:50:11.859Z,929.95
2016-11-25T01:50:26.215Z,929.96
2016-11-25T01:50:40.537Z,929.93
2016-11-25T01:50:54.855Z,929.93
2016-11-25T01:51:09.285Z,930.03
2016-11-25T01:51:23.744Z,930.03
2016-11-25T01:51:38.139Z,929.99
2016-11-25T01:51:52.489Z,929.95
2016-11-25T01:52:06.835Z,930
2016-11-25T01:52:21.191Z,929.97
2016-11-25T01:52:35.529Z,930
2016-11-25T01:52:49.920Z,929.98
2016-11-25T01:53:04.239Z,929.96
2016-11-25T01:53:18.606Z,929.95
2016-11-25T01:53:33.069Z,929.98
2016-11-25T01:53:47.377Z,930.02
2016-11-25T01:54:01.712Z,929.95
2016-11-25T01:54:16.121Z,929.97
2016-11-25T01:54:30.519Z,929.99
2016-11-25T01:54:44.826Z,929.95
2016-11-25T01:54:59.169Z,929.97
2016-11-25T01:55:13.515Z,930.05
2016-11-25T01:55:27.867Z,930
2016-11-25T01:55:42.266Z,929.97
2016-11-25T01:55:56.652Z,929.96
2016-11-25T01:56:11.004Z,929.96
2016-11-25T01:56:25.376Z,930
2016-11-25T01:56:39.829Z,930.01
2016-11-25T01:56:54.268Z,930.04
2016-11-25T01:57:08.637Z,930.03
2016-11-25T01:57:23.010Z,930.02
2016-11-25T01:57:37.427Z,930.02
2016-11-25T01:57:51.787Z,930.02
2016-11-25T01:58:06.181Z,930.01
2016-11-25T01:58:20.516Z,930.01
2016-11-25T01:58:34.907Z,930.02
2016-11-25T01:58:49.258Z,930.02
2016-11-25T01:59:03.624Z,930.02
2016-11-25T01:59:18.019Z,930.03
2016-11-25T01:59:32.405Z,930.02
2016-11-25T01:59:46.771Z,930.02
2016-11-25T02:00:01.418Z,930.03
2016-11-25T02:00:15.726Z,930.03
2016-11-25T02:00:30.127Z,930.07
2016-11-25T02:00:44.491Z,930.06
2016-11-25T02:00:58.885Z,930.05
2016-11-25T02:01:13.323Z,930.06
2016-11-25T02:01:27.708Z,930.03
2016-11-25T02:01:42.040Z,930.05
2016-11-25T02:01:56.363Z,930.04
2016-11-25T02:02:10.752Z,930
2016-11-25T02:02:25.176Z,930.05
2016-11-25T02:02:39.524Z,930.03
2016-11-25T02:02:53.918Z,930
2016-11-25T02:03:08.249Z,930.03
2016-11-25T02:03:22.590Z,930.04
2016-11-25T02:03:36.915Z,930.01
2016-11-25T02:03:51.391Z,930.1
2016-11-25T02:04:05.822Z,930.05
2016-11-25T02:04:20.313Z,930.07
2016-11-25T02:04:34.692Z,930.04
2016-11-25T02:04:49.186Z,930.05
2016-11-25T02:05:03.618Z,930.01
2016-11-25T02:05:18.092Z,930.03
2016-11-25T02:05:32.441Z,930.03
2016-11-25T02:05:46.837Z,930.04
2016-11-25T02:06:01.233Z,930.04
2016-11-25T02:06:15.562Z,930.08
2016-11-25T02:06:29.993Z,930.06
2016-11-25T02:06:44.390Z,930.1
2016-11-25T02:06:58.749Z,930.09
2016-11-25T02:07:13.112Z,930.07
2016-11-25T02:07:27.562Z,930.07
2016-11-25T02:07:41.999Z,930.07
2016-11-25T02:07:56.476Z,930.08
2016-11-25T02:08:10.815Z,930.14
2016-11-25T02:08:25.231Z,930.1
2016-11-25T02:08:39.624Z,930.09
2016-11-25T02:08:53.968Z,930.11
2016-11-25T02:09:08.534Z,930.1
2016-11-25T02:09:22.887Z,930.08
2016-11-25T02:09:37.288Z,930.1
2016-11-25T02:09:51.662Z,930.1
2016-11-25T02:10:05.981Z,930.08
2016-11-25T02:10:20.410Z,930.09
2016-11-25T02:10:34.801Z,930.08
2016-11-25T02:10:49.170Z,930.07
2016-11-25T02:11:03.521Z,930.08
2016-11-25T02:11:17.926Z,930.13
2016-11-25T02:11:32.354Z,930.07
2016-11-25T02:11:46.699Z,930.06
2016-11-25T02:12:01.125Z,930.12
2016-11-25T02:12:15.511Z,930.07
2016-11-25T02:12:29.862Z,930.08
2016-11-25T02:12:44.204Z,930.08
2016-11-25T02:12:58.561Z,930.08
2016-11-25T02:13:13.056Z,930.05
2016-11-25T02:13:27.369Z,930.04
2016-11-25T02:13:41.690Z,930.05
2016-11-25T02:13:56.180Z,930.07
2016-11-25T02:14:10.564Z,930.06
2016-11-25T02:14:24.935Z,930.08
2016-11-25T02:14:39.357Z,930.03
2016-11-25T02:14:53.795Z,930.02
2016-11-25T02:15:08.577Z,930.02
2016-11-25T02:15:22.900Z,930.06
2016-11-25T02:15:37.209Z,930.06
2016-11-25T02:15:51.605Z,930.02
2016-11-25T02:16:06.007Z,930.04
2016-11-25T02:16:20.474Z,930.01
2016-11-25T02:16:34.844Z,929.99
2016-11-25T02:16:49.178Z,930.03
2016-11-25T02:17:03.504Z,930.02
2016-11-25T02:17:18.069Z,930.04
2016-11-25T02:17:32.449Z,930.03
2016-11-25T02:17:46.894Z,929.98
2016-11-25T02:18:01.283Z,929.98
2016-11-25T02:18:15.733Z,929.96
2016-11-25T02:18:30.058Z,929.96
2016-11-25T02:18:44.456Z,929.98
2016-11-25T02:18:58.769Z,929.99
2016-11-25T02:19:13.124Z,929.98
2016-11-25T02:19:27.544Z,929.99
2016-11-25T02:19:41.905Z,929.98
2016-11-25T02:19:56.369Z,929.96
2016-11-25T02:20:10.731Z,929.96
2016-11-25T02:20:25.075Z,929.98
2016-11-25T02:20:39.459Z,929.95
2016-11-25T02:20:53.917Z,929.97
2016-11-25T02:21:08.352Z,929.96
2016-11-25T02:21:22.747Z,929.94
2016-11-25T02:21:37.148Z,929.96
2016-11-25T02:21:51.523Z,929.96
2016-11-25T02:22:05.914Z,929.95
2016-11-25T02:22:20.265Z,929.95
2016-11-25T02:22:34.656Z,929.95
2016-11-25T02:22:49.041Z,929.92
2016-11-25T02:23:03.416Z,929.97
2016-11-25T02:23:17.768Z,929.93
2016-11-25T02:23:32.039Z,929.92
2016-11-25T02:23:46.399Z,929.96
2016-11-25T02:24:00.871Z,929.91
2016-11-25T02:24:15.219Z,929.89
2016-11-25T02:24:29.589Z,929.9
2016-11-25T02:24:44.016Z,929.89
2016-11-25T02:24:58.420Z,929.89
2016-11-25T02:25:12.874Z,929.9
2016-11-25T02:25:27.288Z,929.89
2016-11-25T02:25:41.626Z,929.91
2016-11-25T02:25:55.988Z,929.89
2016-11-25T02:26:10.361Z,929.89
2016-11-25T02:26:24.764Z,929.87
2016-11-25T02:26:39.169Z,929.83
2016-11-25T02:26:53.577Z,929.84
2016-11-25T02:27:08.011Z,929.86
2016-11-25T02:27:22.360Z,929.87
2016-11-25T02:27:36.789Z,929.84
2016-11-25T02:27:51.141Z,929.84
2016-11-25T02:28:05.537Z,929.84
2016-11-25T02:28:19.980Z,929.82
2016-11-25T02:28:34.350Z,929.85
2016-11-25T02:28:48.641Z,929.85
2016-11-25T02:29:03.028Z,929.82
2016-11-25T02:29:17.391Z,929.86
2016-11-25T02:29:31.772Z,929.88
2016-11-25T02:29:46.133Z,929.88
2016-11-25T02:30:00.497Z,929.84
2016-11-25T02:30:15.174Z,929.88
2016-11-25T02:30:29.523Z,929.84
2016-11-25T02:30:43.883Z,929.84
2016-11-25T02:30:58.224Z,929.85
2016-11-25T02:31:12.617Z,929.83
2016-11-25T02:31:27.019Z,929.84
2016-11-25T02:31:41.456Z,929.88
2016-11-25T02:31:55.909Z,929.88
2016-11-25T02:32:10.293Z,929.86
2016-11-25T02:32:24.683Z,929.83
2016-11-25T02:32:39.104Z,929.84
2016-11-25T02:32:53.478Z,929.87
2016-11-25T02:33:07.865Z,929.86
2016-11-25T02:33:22.267Z,929.89
2016-11-25T02:33:36.662Z,929.86
2016-11-25T02:33:51.044Z,929.84
2016-11-25T02:34:05.433Z,929.86
2016-11-25T02:34:19.784Z,929.84
2016-11-25T02:34:34.140Z,929.91
2016-11-25T02:34:48.520Z,929.84
2016-11-25T02:35:02.865Z,929.86
2016-11-25T02:35:17.185Z,929.92
2016-11-25T02:35:31.550Z,929.85
2016-11-25T02:35:45.992Z,929.83
2016-11-25T02:36:00.447Z,929.81
2016-11-25T02:36:14.899Z,929.82
2016-11-25T02:36:29.324Z,929.84
2016-11-25T02:36:43.655Z,929.87
2016-11-25T02:36:57.981Z,929.81
2016-11-25T02:37:12.413Z,929.83
2016-11-25T02:37:26.855Z,929.82
2016-11-25T02:37:41.206Z,929.81
2016-11-25T02:37:55.726Z,929.79
2016-11-25T02:38:10.061Z,929.84
2016-11-25T02:38:24.523Z,929.84
2016-11-25T02:38:38.877Z,929.82
2016-11-25T02:38:53.257Z,929.8
2016-11-25T02:39:07.565Z,929.81
2016-11-25T02:39:22.038Z,929.86
2016-11-25T02:39:36.456Z,929.83
2016-11-25T02:39:50.815Z,929.84
2016-11-25T02:40:05.146Z,929.8
2016-11-25T02:40:19.533Z,929.8
2016-11-25T02:40:33.918Z,929.87
2016-11-25T02:40:48.230Z,929.83
2016-11-25T02:41:02.613Z,929.78
2016-11-25T02:41:16.993Z,929.82
2016-11-25T02:41:31.343Z,929.84
2016-11-25T02:41:45.649Z,929.83
2016-11-25T02:42:00.038Z,929.85
2016-11-25T02:42:14.404Z,929.83
2016-11-25T02:42:28.748Z,929.83
2016-11-25T02:42:43.042Z,929.83
2016-11-25T02:42:57.393Z,929.87
2016-11-25T02:43:11.740Z,929.85
2016-11-25T02:43:26.107Z,929.82
2016-11-25T02:43:40.439Z,929.83
2016-11-25T02:43:54.858Z,929.84
2016-11-25T02:44:09.230Z,929.83
2016-11-25T02:44:23.526Z,929.82
2016-11-25T02:44:37.932Z,929.82
2016-11-25T02:44:52.384Z,929.84
2016-11-25T02:45:06.796Z,929.83
2016-11-25T02:45:21.572Z,929.84
2016-11-25T02:45:35.953Z,929.86
2016-11-25T02:45:50.314Z,929.85
2016-11-25T02:46:04.762Z,929.96
2016-11-25T02:46:19.114Z,929.86
2016-11-25T02:46:33.522Z,929.82
2016-11-25T02:46:47.936Z,929.88
2016-11-25T02:47:02.338Z,929.83
2016-11-25T02:47:16.726Z,929.85
2016-11-25T02:47:31.089Z,929.84
2016-11-25T02:47:45.426Z,929.84
2016-11-25T02:47:59.787Z,929.86
2016-11-25T02:48:14.156Z,929.82
2016-11-25T02:48:28.561Z,929.8
2016-11-25T02:48:42.947Z,929.82
2016-11-25T02:48:57.378Z,929.78
2016-11-25T02:49:11.821Z,929.8
2016-11-25T02:49:26.201Z,929.79
2016-11-25T02:49:40.616Z,929.77
2016-11-25T02:49:55.044Z,929.77
2016-11-25T02:50:09.455Z,929.8
2016-11-25T02:50:23.853Z,929.82
2016-11-25T02:50:38.214Z,929.77
2016-11-25T02:50:52.599Z,929.79
2016-11-25T02:51:06.959Z,929.77
2016-11-25T02:51:21.322Z,929.79
2016-11-25T02:51:35.673Z,929.73
2016-11-25T02:51:50.010Z,929.78
2016-11-25T02:52:04.347Z,929.76
2016-11-25T02:52:18.744Z,929.76
2016-11-25T02:52:33.084Z,929.77
2016-11-25T02:52:47.480Z,929.77
2016-11-25T02:53:01.936Z,929.77
2016-11-25T02:53:16.371Z,929.79
2016-11-25T02:53:30.727Z,929.74
2016-11-25T02:53:45.047Z,929.71
2016-11-25T02:53:59.454Z,929.73
2016-11-25T02:54:13.853Z,929.74
2016-11-25T02:54:28.249Z,929.74
2016-11-25T02:54:42.609Z,929.77
2016-11-25T02:54:57.023Z,929.76
2016-11-25T02:55:11.350Z,929.71
2016-11-25T02:55:25.701Z,929.71
2016-11-25T02:55:39.994Z,929.73
2016-11-25T02:55:54.413Z,929.69
2016-11-25T02:56:08.767Z,929.72
2016-11-25T02:56:23.079Z,929.73
2016-11-25T02:56:37.508Z,929.69
2016-11-25T02:56:51.857Z,929.71
2016-11-25T02:57:06.296Z,929.68
2016-11-25T02:57:20.720Z,929.69
2016-11-25T02:57:35.097Z,929.68
2016-11-25T02:57:49.528Z,929.66
2016-11-25T02:58:03.897Z,929.7
2016-11-25T02:58:18.308Z,929.7
2016-11-25T02:58:32.757Z,929.66
2016-11-25T02:58:47.075Z,929.7
2016-11-25T02:59:01.513Z,929.66
2016-11-25T02:59:15.912Z,929.64
2016-11-25T02:59:30.218Z,929.64
2016-11-25T02:59:44.570Z,929.64
2016-11-25T02:59:58.895Z,929.63
2016-11-25T03:00:13.234Z,929.66
2016-11-25T03:00:27.910Z,929.66
2016-11-25T03:00:42.338Z,929.66